Time;durP1;ratioP1;P1;durP2;ratioP2;P2;SDS_P1;SDS_P2;PMS_P1;PMS_P2;Temp;Humidity;BMP_temperature;BMP_pressure;BME280_temperature;BME280_humidity;BME280_pressure;Samples;Min_cycle;Max_cycle;Signal;HPM_P1;HPM_P2
2022/08/19 00:01:43;;;;;;;11.60;5.20;;;27.10;66.50;;;;;;4795617;29;20051;-72
2022/08/19 00:04:12;;;;;;;10.77;5.40;;;27.10;66.80;;;;;;4815182;29;20666;-72
2022/08/19 00:06:41;;;;;;;7.15;5.10;;;27.00;66.20;;;;;;4800817;29;20085;-72
2022/08/19 00:09:12;;;;;;;6.97;4.95;;;27.00;66.30;;;;;;4800639;29;20049;-72
2022/08/19 00:11:40;;;;;;;10.23;5.65;;;27.00;66.40;;;;;;4800700;29;20047;-72
2022/08/19 00:14:10;;;;;;;8.10;5.40;;;26.90;66.70;;;;;;4801277;29;20035;-72
2022/08/19 00:16:39;;;;;;;9.90;5.47;;;26.90;66.70;;;;;;4801970;29;20043;-72
2022/08/19 00:19:07;;;;;;;8.77;6.20;;;26.80;67.40;;;;;;4799709;29;20054;-72
2022/08/19 00:21:39;;;;;;;10.52;5.40;;;26.80;67.50;;;;;;4798618;29;20051;-72
2022/08/19 00:24:08;;;;;;;7.00;5.18;;;26.80;67.00;;;;;;4797458;29;20372;-72
2022/08/19 00:26:36;;;;;;;8.10;5.75;;;26.70;67.30;;;;;;4800162;29;20129;-72
2022/08/19 00:29:05;;;;;;;10.73;6.25;;;26.70;67.40;;;;;;4793972;29;20057;-72
2022/08/19 00:31:32;;;;;;;9.10;5.97;;;26.70;67.50;;;;;;4810899;29;20054;-72
2022/08/19 00:34:00;;;;;;;8.57;5.05;;;26.70;67.70;;;;;;4803261;29;20125;-74
2022/08/19 00:36:28;;;;;;;8.40;6.10;;;26.60;68.40;;;;;;4817733;29;20553;-75
2022/08/19 00:38:56;;;;;;;8.15;5.63;;;26.60;68.40;;;;;;4820804;29;20054;-75
2022/08/19 00:41:24;;;;;;;11.93;5.97;;;26.50;68.50;;;;;;4818867;29;20058;-74
2022/08/19 00:44:07;;;;;;;7.18;5.43;;;26.50;68.40;;;;;;4815468;29;20463;-75
2022/08/19 00:46:36;;;;;;;10.43;5.88;;;26.50;68.60;;;;;;4834329;29;20410;-75
2022/08/19 00:49:09;;;;;;;9.30;5.60;;;26.40;68.50;;;;;;4812082;29;20058;-74
2022/08/19 00:51:37;;;;;;;9.65;5.75;;;26.40;68.80;;;;;;4814080;29;20647;-74
2022/08/19 00:54:04;;;;;;;7.70;5.75;;;26.40;70.00;;;;;;4800416;29;20560;-74
2022/08/19 00:56:31;;;;;;;7.32;5.25;;;26.40;69.00;;;;;;4815005;29;20077;-74
2022/08/19 00:59:00;;;;;;;9.68;5.78;;;26.40;69.30;;;;;;4821590;29;20417;-74
2022/08/19 01:01:28;;;;;;;10.00;5.97;;;26.30;69.50;;;;;;4820395;29;20051;-75
2022/08/19 01:03:55;;;;;;;10.88;5.35;;;26.30;68.90;;;;;;4820375;29;20054;-74
2022/08/19 01:06:26;;;;;;;9.98;6.00;;;26.30;69.10;;;;;;4833315;29;20807;-75
2022/08/19 01:08:56;;;;;;;10.48;5.55;;;26.20;68.90;;;;;;4820472;29;20427;-75
2022/08/19 01:11:23;;;;;;;7.97;5.57;;;26.20;69.10;;;;;;4819852;29;20038;-74
2022/08/19 01:13:52;;;;;;;12.73;6.93;;;26.20;69.90;;;;;;4835213;29;20057;-75
2022/08/19 01:16:23;;;;;;;7.75;5.60;;;26.20;69.60;;;;;;4822736;29;20053;-75
2022/08/19 01:18:51;;;;;;;9.38;6.72;;;26.10;69.20;;;;;;4819846;29;20149;-74
2022/08/19 01:21:37;;;;;;;9.98;5.90;;;26.10;69.40;;;;;;4819249;29;20450;-74
2022/08/19 01:24:05;;;;;;;8.70;5.57;;;26.10;69.90;;;;;;4816102;29;20053;-75
2022/08/19 01:26:39;;;;;;;9.35;5.40;;;26.00;69.50;;;;;;4816540;29;20466;-75
2022/08/19 01:29:08;;;;;;;9.70;5.78;;;26.00;69.60;;;;;;4818393;29;20074;-75
2022/08/19 01:31:36;;;;;;;11.27;6.13;;;26.00;69.60;;;;;;4819597;29;20141;-75
2022/08/19 01:34:04;;;;;;;8.00;5.90;;;26.00;69.70;;;;;;4832204;29;20050;-74
2022/08/19 01:36:35;;;;;;;10.10;6.82;;;26.00;69.70;;;;;;4815172;29;20063;-74
2022/08/19 01:39:06;;;;;;;10.32;6.22;;;25.90;69.60;;;;;;4821364;29;20054;-74
2022/08/19 01:41:34;;;;;;;11.10;5.63;;;25.90;69.80;;;;;;4817543;29;20060;-75
2022/08/19 01:44:03;;;;;;;9.88;6.07;;;25.90;69.70;;;;;;4822006;29;20730;-77
2022/08/19 01:46:48;;;;;;;7.50;5.85;;;25.80;69.80;;;;;;4820897;29;20061;-75
2022/08/19 01:49:17;;;;;;;8.98;6.60;;;25.80;69.90;;;;;;4829488;29;20058;-75
2022/08/19 01:51:45;;;;;;;10.18;6.20;;;25.80;70.40;;;;;;4817809;29;20390;-75
2022/08/19 01:54:15;;;;;;;9.45;6.18;;;25.80;70.40;;;;;;4799701;29;20054;-75
2022/08/19 01:56:59;;;;;;;10.32;6.28;;;25.80;70.20;;;;;;4815580;29;20057;-75
2022/08/19 01:59:28;;;;;;;9.80;6.38;;;25.70;70.20;;;;;;4819260;29;20125;-75
2022/08/19 02:01:55;;;;;;;9.63;5.55;;;25.80;71.00;;;;;;4820712;29;20411;-75
2022/08/19 02:04:23;;;;;;;9.90;6.38;;;25.70;70.20;;;;;;4825115;29;20050;-76
2022/08/19 02:06:50;;;;;;;8.93;5.82;;;25.70;70.40;;;;;;4832650;29;20042;-74
2022/08/19 02:09:17;;;;;;;8.45;6.05;;;25.70;70.60;;;;;;4823086;29;20058;-75
2022/08/19 02:11:44;;;;;;;12.15;6.53;;;25.60;70.60;;;;;;4825352;29;20057;-75
2022/08/19 02:14:11;;;;;;;11.73;6.45;;;25.60;70.80;;;;;;4825397;29;20046;-76
2022/08/19 02:16:40;;;;;;;7.63;5.93;;;25.60;70.70;;;;;;4811192;29;20046;-77
2022/08/19 02:19:07;;;;;;;9.18;5.82;;;25.60;70.80;;;;;;4821984;29;20047;-75
2022/08/19 02:21:35;;;;;;;8.77;5.82;;;25.50;71.10;;;;;;4822679;29;20474;-76
2022/08/19 02:24:04;;;;;;;11.27;6.32;;;25.50;71.30;;;;;;4825790;29;20125;-76
2022/08/19 02:26:33;;;;;;;12.10;6.32;;;25.40;71.50;;;;;;4839088;29;20050;-76
2022/08/19 02:29:00;;;;;;;12.15;6.18;;;25.40;71.60;;;;;;4841467;29;20049;-77
2022/08/19 02:31:30;;;;;;;7.45;5.45;;;25.40;71.60;;;;;;4826258;29;20486;-76
2022/08/19 02:33:57;;;;;;;10.35;5.70;;;25.20;72.20;;;;;;4824879;29;20133;-77
2022/08/19 02:36:25;;;;;;;9.93;6.05;;;25.20;72.20;;;;;;4839273;29;20066;-74
2022/08/19 02:38:53;;;;;;;8.77;5.97;;;25.20;72.20;;;;;;4841961;29;20056;-74
2022/08/19 02:41:25;;;;;;;8.63;6.10;;;25.30;72.40;;;;;;4844063;29;20113;-74
2022/08/19 02:43:54;;;;;;;9.15;5.78;;;25.20;72.60;;;;;;4841918;29;20050;-74
2022/08/19 02:46:44;;;;;;;8.60;6.30;;;25.30;72.70;;;;;;4825699;29;20058;-74
2022/08/19 02:49:11;;;;;;;11.18;6.20;;;25.20;72.80;;;;;;4842064;29;20090;-75
2022/08/19 02:51:41;;;;;;;8.63;6.03;;;25.20;72.70;;;;;;4823390;29;20056;-75
2022/08/19 02:54:10;;;;;;;14.80;6.45;;;25.20;73.10;;;;;;4827398;29;20051;-75
2022/08/19 02:56:39;;;;;;;10.25;5.90;;;25.20;72.80;;;;;;4812259;29;20069;-74
2022/08/19 02:59:09;;;;;;;11.07;6.72;;;25.10;73.20;;;;;;4843510;29;20046;-75
2022/08/19 03:01:40;;;;;;;11.45;5.72;;;25.20;73.20;;;;;;4827396;29;20049;-74
2022/08/19 03:04:12;;;;;;;8.25;6.40;;;25.10;73.80;;;;;;4812635;29;20104;-75
2022/08/19 03:06:41;;;;;;;8.70;6.13;;;25.10;73.60;;;;;;4827989;29;20062;-74
2022/08/19 03:09:09;;;;;;;9.10;5.75;;;25.10;73.30;;;;;;4840440;29;20414;-74
2022/08/19 03:11:37;;;;;;;6.95;5.80;;;25.20;73.90;;;;;;4824664;29;20045;-74
2022/08/19 03:14:06;;;;;;;9.75;5.88;;;25.10;73.30;;;;;;4842531;29;20149;-76
2022/08/19 03:16:39;;;;;;;9.98;6.18;;;25.10;74.30;;;;;;4828338;29;20528;-75
2022/08/19 03:19:07;;;;;;;9.30;6.20;;;25.10;74.10;;;;;;4842943;29;22339;-74
2022/08/19 03:21:34;;;;;;;8.07;6.00;;;25.10;74.80;;;;;;4821779;29;20097;-74
2022/08/19 03:24:05;;;;;;;9.90;6.00;;;25.00;73.80;;;;;;4824564;29;20064;-74
2022/08/19 03:26:39;;;;;;;11.32;6.13;;;25.00;74.20;;;;;;4821551;29;20111;-75
2022/08/19 03:29:08;;;;;;;11.63;6.18;;;25.00;74.00;;;;;;4839676;29;20402;-74
2022/08/19 03:31:39;;;;;;;8.15;5.93;;;25.00;74.10;;;;;;4840965;29;20058;-74
2022/08/19 03:34:26;;;;;;;13.73;5.95;;;24.90;74.10;;;;;;4837416;29;20054;-75
2022/08/19 03:36:58;;;;;;;11.10;6.25;;;24.90;74.20;;;;;;4838876;29;20046;-75
2022/08/19 03:39:26;;;;;;;8.98;6.38;;;24.90;74.10;;;;;;4841198;29;20052;-75
2022/08/19 03:41:59;;;;;;;11.35;6.70;;;24.90;74.10;;;;;;4843118;29;20449;-75
2022/08/19 03:44:47;;;;;;;10.90;6.13;;;24.90;74.00;;;;;;4834310;29;20099;-76
2022/08/19 03:47:15;;;;;;;8.35;6.20;;;24.90;73.90;;;;;;4840511;29;20057;-77
2022/08/19 03:49:42;;;;;;;9.32;5.95;;;24.90;74.10;;;;;;4840458;29;20478;-77
2022/08/19 03:52:09;;;;;;;10.90;6.32;;;24.80;74.40;;;;;;4808539;29;20060;-76
2022/08/19 03:54:38;;;;;;;9.93;5.88;;;24.70;74.50;;;;;;4839938;29;20121;-75
2022/08/19 03:57:05;;;;;;;10.27;6.22;;;24.80;74.30;;;;;;4823963;29;20045;-75
2022/08/19 03:59:35;;;;;;;9.88;5.65;;;24.80;74.30;;;;;;4829929;29;20470;-75
2022/08/19 04:02:08;;;;;;;11.13;6.47;;;24.80;74.30;;;;;;4828837;29;20145;-75
2022/08/19 04:04:38;;;;;;;7.97;5.78;;;24.80;74.40;;;;;;4839738;29;20359;-75
2022/08/19 04:07:05;;;;;;;10.63;6.47;;;24.70;74.70;;;;;;4807738;29;20523;-76
2022/08/19 04:09:36;;;;;;;9.48;6.40;;;24.70;74.70;;;;;;4812083;29;20042;-74
2022/08/19 04:12:05;;;;;;;8.55;6.03;;;24.80;74.60;;;;;;4838885;29;20398;-76
2022/08/19 04:14:33;;;;;;;10.38;6.30;;;24.80;74.70;;;;;;4840521;29;20506;-76
2022/08/19 04:17:04;;;;;;;10.77;6.38;;;24.80;74.70;;;;;;4839939;29;20076;-76
2022/08/19 04:19:34;;;;;;;9.55;5.72;;;24.90;74.40;;;;;;4840136;29;20482;-76
2022/08/19 04:22:02;;;;;;;9.57;6.22;;;24.90;74.30;;;;;;4823840;29;20037;-75
2022/08/19 04:24:29;;;;;;;10.85;6.10;;;24.90;74.40;;;;;;4820421;29;20053;-75
2022/08/19 04:26:56;;;;;;;9.68;6.05;;;24.90;74.40;;;;;;4836727;29;20522;-74
2022/08/19 04:29:26;;;;;;;9.38;6.03;;;24.90;74.20;;;;;;4819537;29;20513;-75
2022/08/19 04:31:55;;;;;;;10.93;5.78;;;24.90;74.30;;;;;;4792402;29;20056;-76
2022/08/19 04:34:25;;;;;;;7.57;5.28;;;24.90;74.50;;;;;;4820042;29;20033;-75
2022/08/19 04:36:55;;;;;;;9.07;5.38;;;24.90;74.60;;;;;;4814725;29;20034;-74
2022/08/19 04:42:38;;;;;;;7.55;5.25;;;24.90;74.90;;;;;;4826140;29;20046;-75
2022/08/19 04:45:00;;;;;;;11.20;5.47;;;24.80;74.70;;;;;;4834667;29;20046;-74
2022/08/19 04:47:27;;;;;;;7.47;5.32;;;24.90;74.90;;;;;;4819270;29;20054;-76
2022/08/19 04:50:14;;;;;;;8.35;5.55;;;24.90;75.10;;;;;;4840770;29;20045;-76
2022/08/19 04:52:44;;;;;;;7.72;5.32;;;25.00;74.60;;;;;;4839494;29;20132;-75
2022/08/19 04:55:12;;;;;;;10.75;5.57;;;25.00;74.40;;;;;;4839947;29;20076;-75
2022/08/19 04:57:39;;;;;;;8.13;5.13;;;25.10;74.40;;;;;;4810114;29;20136;-77
2022/08/19 05:00:10;;;;;;;8.68;5.53;;;24.90;74.30;;;;;;4826121;29;20490;-77
2022/08/19 05:02:38;;;;;;;10.80;5.40;;;24.80;74.90;;;;;;4837384;29;20073;-75
2022/08/19 05:05:06;;;;;;;8.25;5.38;;;24.90;74.80;;;;;;4825034;29;20477;-76
2022/08/19 05:07:34;;;;;;;9.13;5.50;;;25.10;74.20;;;;;;4839276;29;20201;-75
2022/08/19 05:10:01;;;;;;;7.30;4.70;;;25.10;74.10;;;;;;4836359;29;20050;-76
2022/08/19 05:12:28;;;;;;;9.32;4.63;;;25.10;73.90;;;;;;4835737;29;20050;-75
2022/08/19 05:14:57;;;;;;;10.18;5.10;;;25.00;74.00;;;;;;4823678;29;20054;-75
2022/08/19 05:17:26;;;;;;;10.27;5.05;;;25.10;74.10;;;;;;4822187;29;20144;-76
2022/08/19 05:22:46;;;;;;;7.43;5.55;;;25.10;73.90;;;;;;4824172;29;20054;-75
2022/08/19 05:25:18;;;;;;;8.32;5.63;;;25.20;73.90;;;;;;4820073;29;21169;-75
2022/08/19 05:27:47;;;;;;;6.63;4.70;;;25.30;73.70;;;;;;4829909;29;20049;-74
2022/08/19 05:30:15;;;;;;;8.05;4.90;;;25.40;73.40;;;;;;4837505;29;20049;-74
2022/08/19 05:32:42;;;;;;;9.52;4.65;;;25.50;73.50;;;;;;4824957;29;20041;-77
2022/08/19 05:35:11;;;;;;;8.98;4.82;;;25.60;73.00;;;;;;4808655;29;20142;-75
2022/08/19 05:37:42;;;;;;;8.88;4.97;;;25.60;72.90;;;;;;4836593;29;20054;-75
2022/08/19 05:40:10;;;;;;;7.05;4.55;;;25.50;72.70;;;;;;4823863;29;20110;-76
2022/08/19 05:42:37;;;;;;;6.80;4.78;;;25.50;72.90;;;;;;4833522;29;20045;-74
2022/08/19 05:45:05;;;;;;;11.18;4.97;;;25.70;73.20;;;;;;4835814;29;20057;-77
2022/08/19 05:47:32;;;;;;;8.77;5.15;;;25.80;72.40;;;;;;4838380;29;20046;-76
2022/08/19 05:50:01;;;;;;;6.90;4.68;;;25.70;72.50;;;;;;4822782;29;20099;-75
2022/08/19 05:52:31;;;;;;;8.20;4.50;;;25.80;72.40;;;;;;4816336;29;20803;-77
2022/08/19 05:54:59;;;;;;;8.48;4.78;;;25.80;72.40;;;;;;4839337;29;20038;-74
2022/08/19 05:57:28;;;;;;;7.70;4.53;;;26.00;72.30;;;;;;4839447;29;20073;-75
2022/08/19 05:59:57;;;;;;;8.98;4.70;;;26.20;71.70;;;;;;4838338;29;20114;-77
2022/08/19 06:02:30;;;;;;;7.85;4.85;;;26.30;71.60;;;;;;4832683;29;20054;-76
2022/08/19 06:04:58;;;;;;;6.47;4.50;;;26.40;71.20;;;;;;4839134;29;20061;-75
2022/08/19 06:07:26;;;;;;;5.68;4.30;;;26.50;71.20;;;;;;4805064;29;20045;-75
2022/08/19 06:09:54;;;;;;;9.30;4.65;;;26.60;70.80;;;;;;4838468;29;20046;-75
2022/08/19 06:12:32;;;;;;;8.63;4.68;;;26.70;70.40;;;;;;4823495;29;20046;-76
2022/08/19 06:15:02;;;;;;;8.32;4.13;;;26.70;69.10;;;;;;4833808;29;20420;-76
2022/08/19 06:17:30;;;;;;;9.98;4.03;;;26.80;69.00;;;;;;4838563;29;20849;-76
2022/08/19 06:19:58;;;;;;;6.95;3.70;;;26.90;68.40;;;;;;4818774;29;20061;-76
2022/08/19 06:22:26;;;;;;;6.60;4.25;;;27.10;68.10;;;;;;4834829;29;20395;-77
2022/08/19 06:24:54;;;;;;;7.35;4.38;;;27.20;67.40;;;;;;4833032;29;20049;-75
2022/08/19 06:27:21;;;;;;;6.57;3.92;;;27.20;67.10;;;;;;4815764;29;20053;-77
2022/08/19 06:29:49;;;;;;;8.27;4.18;;;27.40;67.20;;;;;;4821472;29;20043;-75
2022/08/19 06:32:18;;;;;;;5.90;4.03;;;27.40;66.80;;;;;;4815111;29;20482;-77
2022/08/19 06:34:46;;;;;;;6.47;3.70;;;27.50;66.50;;;;;;4819057;29;20058;-77
2022/08/19 06:37:14;;;;;;;7.03;4.38;;;27.50;66.00;;;;;;4826932;29;20049;-77
2022/08/19 06:39:43;;;;;;;6.30;3.92;;;27.50;66.10;;;;;;4836768;29;20136;-75
2022/08/19 06:42:13;;;;;;;9.20;4.30;;;27.70;66.00;;;;;;4836773;29;20081;-75
2022/08/19 06:44:42;;;;;;;5.97;4.03;;;27.90;65.70;;;;;;4838443;29;20050;-77
2022/08/19 06:47:20;;;;;;;7.75;4.10;;;27.90;65.30;;;;;;4834069;29;20054;-77
2022/08/19 06:50:02;;;;;;;6.85;4.40;;;28.00;64.70;;;;;;4828988;29;20270;-75
2022/08/19 06:52:34;;;;;;;6.53;4.20;;;28.10;64.60;;;;;;4830683;29;20058;-78
2022/08/19 06:55:03;;;;;;;6.82;3.88;;;28.20;64.30;;;;;;4836326;29;20049;-76
2022/08/19 06:57:33;;;;;;;6.45;4.07;;;28.30;64.30;;;;;;4823219;29;20060;-75
2022/08/19 07:00:00;;;;;;;7.15;3.72;;;28.40;63.80;;;;;;4822782;29;20513;-74
2022/08/19 07:02:28;;;;;;;8.65;3.85;;;28.50;63.40;;;;;;4802437;29;20077;-74
2022/08/19 07:04:57;;;;;;;6.38;3.38;;;28.60;64.50;;;;;;4822150;29;20125;-75
2022/08/19 07:07:25;;;;;;;7.25;3.92;;;28.80;63.60;;;;;;4839001;29;20074;-77
2022/08/19 07:09:53;;;;;;;7.28;4.03;;;29.00;62.80;;;;;;4821014;29;20057;-75
2022/08/19 07:12:34;;;;;;;5.22;3.47;;;29.00;62.80;;;;;;4840611;29;20050;-75
2022/08/19 07:15:05;;;;;;;7.70;3.47;;;29.10;62.60;;;;;;4840141;29;20073;-74
2022/08/19 07:17:34;;;;;;;6.25;3.53;;;29.30;62.70;;;;;;4839668;29;20038;-75
2022/08/19 07:20:02;;;;;;;6.45;3.40;;;29.30;61.90;;;;;;4822848;29;20069;-75
2022/08/19 07:22:35;;;;;;;6.45;3.85;;;29.40;61.60;;;;;;4838248;29;20155;-75
2022/08/19 07:25:03;;;;;;;6.57;4.00;;;29.50;61.50;;;;;;4836302;29;20124;-76
2022/08/19 07:27:31;;;;;;;7.40;4.10;;;29.70;61.50;;;;;;4836492;29;20074;-76
2022/08/19 07:29:59;;;;;;;9.18;3.88;;;29.80;60.50;;;;;;4835497;29;20145;-76
2022/08/19 07:32:27;;;;;;;6.35;3.95;;;29.90;61.30;;;;;;4840003;29;20073;-76
2022/08/19 07:34:55;;;;;;;8.15;4.18;;;30.00;61.00;;;;;;4837758;29;20081;-75
2022/08/19 07:37:26;;;;;;;8.68;4.88;;;30.10;60.70;;;;;;4832934;29;20088;-77
2022/08/19 07:39:59;;;;;;;6.93;3.80;;;30.20;59.70;;;;;;4817071;29;20066;-76
2022/08/19 07:42:29;;;;;;;8.32;4.38;;;30.20;59.30;;;;;;4816919;29;20054;-76
2022/08/19 07:44:58;;;;;;;5.35;3.72;;;30.20;59.10;;;;;;4820794;29;20064;-75
2022/08/19 07:47:28;;;;;;;5.95;4.03;;;30.30;59.30;;;;;;4809994;29;20089;-76
2022/08/19 07:50:15;;;;;;;5.35;3.85;;;30.50;58.70;;;;;;4835716;29;20045;-77
2022/08/19 07:52:44;;;;;;;5.35;3.25;;;30.60;58.50;;;;;;4834423;29;20121;-76
2022/08/19 07:55:15;;;;;;;6.05;4.07;;;30.60;58.20;;;;;;4825002;29;20038;-78
2022/08/19 07:58:04;;;;;;;5.15;3.55;;;30.50;58.20;;;;;;4831930;29;20046;-77
2022/08/19 08:00:32;;;;;;;5.72;3.90;;;30.70;58.20;;;;;;4815870;29;20038;-76
2022/08/19 08:02:59;;;;;;;7.90;3.90;;;30.80;58.20;;;;;;4817098;29;20103;-76
2022/08/19 08:10:59;;;;;;;6.95;4.22;;;31.00;57.60;;;;;;4837658;29;20462;-77
2022/08/19 08:13:27;;;;;;;6.25;3.53;;;31.20;57.10;;;;;;4837530;29;20347;-77
2022/08/19 08:15:56;;;;;;;6.53;3.70;;;31.30;56.80;;;;;;4838733;29;20056;-75
2022/08/19 08:18:24;;;;;;;7.13;4.15;;;31.40;56.00;;;;;;4805014;29;20074;-78
2022/08/19 08:20:55;;;;;;;6.22;3.58;;;31.40;56.90;;;;;;4833483;29;20144;-76
2022/08/19 08:23:24;;;;;;;6.93;3.47;;;31.40;55.60;;;;;;4819028;29;20536;-77
2022/08/19 08:25:55;;;;;;;6.93;3.78;;;31.50;56.50;;;;;;4815233;29;20043;-76
2022/08/19 08:28:25;;;;;;;4.53;3.55;;;31.50;55.80;;;;;;4835769;29;20137;-76
2022/08/19 08:30:56;;;;;;;5.30;3.42;;;31.50;55.90;;;;;;4816408;29;20057;-76
2022/08/19 08:33:26;;;;;;;6.68;4.00;;;31.70;56.00;;;;;;4815257;29;20108;-76
2022/08/19 08:36:01;;;;;;;5.57;3.60;;;31.70;56.00;;;;;;4836951;29;20054;-76
2022/08/19 08:38:31;;;;;;;5.90;3.65;;;31.80;55.90;;;;;;4836285;29;20066;-76
2022/08/19 08:41:19;;;;;;;4.90;3.50;;;31.80;55.30;;;;;;4833690;29;20081;-77
2022/08/19 08:43:51;;;;;;;5.28;3.47;;;31.80;55.30;;;;;;4822376;29;20106;-76
2022/08/19 08:46:37;;;;;;;6.30;3.38;;;31.80;55.90;;;;;;4816351;29;20425;-77
2022/08/19 08:49:24;;;;;;;7.18;4.10;;;31.90;54.80;;;;;;4835091;29;20564;-75
2022/08/19 08:52:06;;;;;;;5.32;3.53;;;32.00;54.90;;;;;;4832311;29;20103;-74
2022/08/19 08:54:39;;;;;;;6.00;3.63;;;31.90;55.50;;;;;;4829972;29;20091;-76
2022/08/19 08:57:30;;;;;;;7.75;3.80;;;31.90;55.40;;;;;;4815036;29;20513;-77
2022/08/19 09:00:14;;;;;;;5.43;3.50;;;32.10;55.20;;;;;;4837403;29;20058;-76
2022/08/19 09:02:42;;;;;;;9.13;4.15;;;32.10;54.90;;;;;;4829581;29;20413;-77
2022/08/19 09:05:12;;;;;;;6.82;3.97;;;32.20;54.30;;;;;;4816208;29;20110;-76
2022/08/19 09:07:57;;;;;;;6.55;3.80;;;32.30;54.50;;;;;;4836163;29;20153;-77
2022/08/19 09:10:37;;;;;;;7.55;3.20;;;32.40;53.70;;;;;;4820787;29;20070;-77
2022/08/19 09:14:01;;;;;;;5.20;3.47;;;32.30;53.60;;;;;;4821904;29;20060;-77
2022/08/19 09:16:30;;;;;;;7.13;3.92;;;32.40;53.30;;;;;;4765755;30;20166;-75
2022/08/19 09:19:01;;;;;;;5.50;3.72;;;32.40;53.00;;;;;;4826270;29;20422;-78
2022/08/19 09:21:29;;;;;;;4.45;3.58;;;32.50;54.00;;;;;;4840794;29;20054;-77
2022/08/19 09:24:02;;;;;;;6.32;3.92;;;32.50;53.20;;;;;;4820195;29;20054;-77
2022/08/19 09:26:31;;;;;;;6.70;3.58;;;32.60;53.00;;;;;;4814089;29;20044;-77
2022/08/19 09:29:14;;;;;;;5.57;3.53;;;32.60;53.00;;;;;;4820156;29;20137;-77
2022/08/19 09:31:43;;;;;;;5.38;3.38;;;32.70;52.50;;;;;;4833841;29;20140;-77
2022/08/19 09:34:10;;;;;;;6.38;3.17;;;32.70;52.20;;;;;;4831071;29;20050;-77
2022/08/19 09:36:52;;;;;;;6.13;3.80;;;32.70;52.50;;;;;;4832104;29;20069;-75
2022/08/19 09:39:21;;;;;;;6.88;3.65;;;32.90;52.30;;;;;;4831776;29;20045;-76
2022/08/19 09:41:49;;;;;;;5.32;3.40;;;33.00;52.20;;;;;;4838681;29;20066;-78
2022/08/19 09:44:20;;;;;;;4.72;3.28;;;32.90;51.40;;;;;;4816543;29;20062;-75
2022/08/19 09:46:47;;;;;;;4.83;3.27;;;33.00;52.00;;;;;;4819409;29;20146;-78
2022/08/19 09:49:23;;;;;;;8.88;3.72;;;32.90;52.00;;;;;;4832987;29;20129;-76
2022/08/19 09:51:54;;;;;;;4.68;3.42;;;33.00;51.30;;;;;;4820532;29;20038;-76
2022/08/19 09:54:22;;;;;;;6.43;4.15;;;33.10;51.00;;;;;;4830083;29;20054;-76
2022/08/19 09:56:54;;;;;;;9.32;3.80;;;33.20;51.70;;;;;;4830308;29;20062;-76
2022/08/19 09:59:22;;;;;;;7.80;3.55;;;33.20;50.90;;;;;;4839501;29;20125;-76
2022/08/19 10:01:49;;;;;;;3.92;3.00;;;33.20;50.90;;;;;;4830961;29;20054;-75
2022/08/19 10:04:16;;;;;;;5.40;3.25;;;33.30;50.80;;;;;;4833840;29;20058;-78
2022/08/19 10:06:49;;;;;;;6.00;3.35;;;33.20;50.60;;;;;;4803889;29;20058;-76
2022/08/19 10:09:20;;;;;;;4.18;3.10;;;33.20;49.80;;;;;;4840210;29;20049;-76
2022/08/19 10:12:01;;;;;;;5.18;3.67;;;33.30;50.40;;;;;;4832050;29;20066;-76
2022/08/19 10:14:28;;;;;;;5.20;2.97;;;33.40;51.10;;;;;;4824777;29;20058;-78
2022/08/19 10:16:56;;;;;;;6.65;3.47;;;33.40;51.10;;;;;;4823232;29;20048;-76
2022/08/19 10:19:25;;;;;;;6.57;3.13;;;33.50;50.20;;;;;;4836811;29;20390;-77
2022/08/19 10:21:53;;;;;;;4.75;3.45;;;33.60;50.50;;;;;;4836129;29;20149;-77
2022/08/19 10:24:27;;;;;;;7.68;3.80;;;33.70;50.00;;;;;;4824518;29;20093;-78
2022/08/19 10:26:55;;;;;;;4.95;3.08;;;33.70;49.30;;;;;;4837063;29;20102;-75
2022/08/19 10:29:31;;;;;;;3.37;2.63;;;33.70;50.10;;;;;;4830635;29;20421;-77
2022/08/19 10:32:01;;;;;;;5.72;3.55;;;33.70;49.50;;;;;;4823097;29;20050;-77
2022/08/19 10:34:30;;;;;;;3.90;3.05;;;33.80;50.60;;;;;;4827379;29;20405;-76
2022/08/19 10:36:59;;;;;;;4.30;2.88;;;33.80;49.20;;;;;;4827750;29;20061;-77
2022/08/19 10:39:29;;;;;;;8.35;3.25;;;33.80;49.30;;;;;;4809738;29;21461;-75
2022/08/19 10:41:58;;;;;;;6.70;3.17;;;33.80;49.70;;;;;;4826646;29;20056;-77
2022/08/19 10:44:29;;;;;;;4.68;3.05;;;33.90;49.50;;;;;;4825698;29;20072;-77
2022/08/19 10:46:59;;;;;;;5.03;3.00;;;33.90;49.80;;;;;;4825259;29;20073;-77
2022/08/19 10:49:26;;;;;;;5.78;3.10;;;34.00;48.60;;;;;;4843339;29;20143;-76
2022/08/19 10:57:43;;;;;;;3.45;2.33;;;34.00;48.80;;;;;;4808907;29;20053;-77
2022/08/19 11:00:28;;;;;;;4.97;2.78;;;34.20;49.00;;;;;;4841276;29;20450;-77
2022/08/19 11:02:56;;;;;;;3.88;3.05;;;34.10;47.60;;;;;;4837227;29;20049;-80
2022/08/19 11:05:23;;;;;;;3.42;2.90;;;34.20;48.30;;;;;;4837051;29;20414;-78
2022/08/19 11:07:51;;;;;;;6.05;3.25;;;34.20;48.90;;;;;;4842274;29;20422;-78
2022/08/19 11:10:19;;;;;;;6.97;3.30;;;34.30;47.80;;;;;;4840401;29;20519;-78
2022/08/19 11:12:50;;;;;;;4.32;3.08;;;34.30;48.00;;;;;;4824825;29;20049;-77
2022/08/19 11:15:17;;;;;;;9.73;3.60;;;34.30;47.30;;;;;;4842163;29;20525;-75
2022/08/19 11:17:44;;;;;;;5.13;3.00;;;34.30;47.90;;;;;;4822904;29;20056;-78
2022/08/19 11:20:14;;;;;;;8.90;3.22;;;34.30;47.90;;;;;;4823548;29;20038;-76
2022/08/19 11:22:41;;;;;;;5.50;2.85;;;34.30;47.80;;;;;;4824287;29;20057;-78
2022/08/19 11:25:10;;;;;;;9.05;2.88;;;34.40;48.10;;;;;;4826409;29;20049;-78
2022/08/19 11:27:42;;;;;;;8.30;3.28;;;34.30;48.10;;;;;;4834928;29;20046;-77
2022/08/19 11:30:11;;;;;;;4.00;2.63;;;34.30;47.40;;;;;;4803056;29;20046;-78
2022/08/19 11:32:40;;;;;;;4.90;3.17;;;34.40;48.40;;;;;;4843487;29;20401;-75
2022/08/19 11:35:13;;;;;;;8.80;3.35;;;34.50;48.20;;;;;;4828042;29;20057;-77
2022/08/19 11:37:40;;;;;;;7.68;2.80;;;34.50;47.30;;;;;;4841396;29;20073;-76
2022/08/19 11:40:08;;;;;;;6.07;3.28;;;34.60;48.40;;;;;;4828243;29;20081;-78
2022/08/19 11:45:23;;;;;;;6.57;3.35;;;34.50;47.70;;;;;;4825439;29;20050;-78
2022/08/19 11:47:50;;;;;;;3.65;2.53;;;34.70;47.50;;;;;;4825587;29;20054;-77
2022/08/19 11:50:18;;;;;;;5.43;2.95;;;34.80;46.90;;;;;;4834114;29;20062;-76
2022/08/19 11:52:46;;;;;;;5.35;3.40;;;34.80;47.10;;;;;;4836880;29;20061;-76
2022/08/19 11:55:13;;;;;;;8.10;3.50;;;34.80;47.30;;;;;;4838819;29;20054;-77
2022/08/19 11:57:43;;;;;;;5.68;3.60;;;34.80;47.60;;;;;;4823775;29;20054;-77
2022/08/19 12:00:12;;;;;;;4.72;3.50;;;34.80;48.00;;;;;;4823014;29;20402;-76
2022/08/19 12:02:40;;;;;;;6.78;3.60;;;34.80;48.00;;;;;;4838910;29;20707;-76
2022/08/19 12:05:08;;;;;;;6.68;3.70;;;34.90;47.10;;;;;;4840421;29;20061;-77
2022/08/19 12:07:40;;;;;;;6.70;4.30;;;34.80;47.80;;;;;;4838511;29;20107;-76
2022/08/19 12:10:08;;;;;;;11.85;5.90;;;34.90;47.40;;;;;;4820990;29;20046;-75
2022/08/19 12:12:40;;;;;;;15.27;11.57;;;34.90;46.30;;;;;;4820334;29;20158;-77
2022/08/19 12:15:08;;;;;;;10.90;7.67;;;35.00;46.50;;;;;;4843755;29;20057;-77
2022/08/19 12:17:35;;;;;;;17.13;9.85;;;35.10;47.00;;;;;;4826783;29;20057;-77
2022/08/19 12:20:04;;;;;;;11.52;8.55;;;35.20;46.20;;;;;;4843697;29;20053;-77
2022/08/19 12:22:31;;;;;;;10.13;8.45;;;35.10;45.60;;;;;;4840518;29;20528;-76
2022/08/19 12:24:58;;;;;;;9.93;7.40;;;35.10;46.50;;;;;;4843940;29;20046;-76
2022/08/19 12:27:25;;;;;;;12.48;8.80;;;35.10;46.50;;;;;;4839271;29;20045;-76
2022/08/19 12:30:08;;;;;;;;;;;35.10;47.10;;;;;;4824081;29;20053;-78
2022/08/19 12:32:35;;;;;;;10.65;6.95;;;35.20;46.90;;;;;;4820513;29;19928;-76
2022/08/19 12:35:03;;;;;;;8.63;5.95;;;35.10;46.70;;;;;;4840574;29;20118;-78
2022/08/19 12:37:32;;;;;;;9.18;6.13;;;35.10;47.20;;;;;;4842962;29;20045;-77
2022/08/19 12:39:59;;;;;;;13.80;8.20;;;35.00;46.50;;;;;;4825910;29;20098;-79
2022/08/19 12:42:27;;;;;;;19.55;11.13;;;35.00;46.50;;;;;;4824010;29;20141;-76
2022/08/19 12:44:54;;;;;;;12.15;9.02;;;35.10;45.90;;;;;;4818828;29;20606;-76
2022/08/19 12:47:22;;;;;;;10.02;7.50;;;35.10;46.00;;;;;;4822080;29;20051;-77
2022/08/19 12:49:49;;;;;;;11.68;8.30;;;35.00;46.00;;;;;;4844321;29;20046;-77
2022/08/19 12:52:22;;;;;;;10.10;8.13;;;35.10;46.50;;;;;;4826626;29;20050;-76
2022/08/19 12:54:51;;;;;;;10.18;7.85;;;35.00;46.10;;;;;;4824044;29;20053;-76
2022/08/19 12:57:22;;;;;;;13.65;8.23;;;35.10;46.30;;;;;;4840656;29;20049;-77
2022/08/19 12:59:58;;;;;;;12.32;9.52;;;35.20;45.60;;;;;;4821941;29;20054;-76
2022/08/19 13:02:26;;;;;;;14.63;11.85;;;35.20;45.90;;;;;;4807184;29;20067;-77
2022/08/19 13:04:53;;;;;;;16.77;10.68;;;35.40;46.40;;;;;;4830285;29;20123;-76
2022/08/19 13:07:21;;;;;;;11.98;8.93;;;35.40;46.40;;;;;;4824623;29;20443;-77
2022/08/19 13:09:51;;;;;;;12.23;9.38;;;35.40;45.60;;;;;;4823717;29;20069;-76
2022/08/19 13:12:20;;;;;;;13.85;9.90;;;35.40;46.20;;;;;;4819035;29;20058;-78
2022/08/19 13:14:51;;;;;;;13.45;10.65;;;35.40;45.50;;;;;;4834914;29;20102;-78
2022/08/19 13:17:19;;;;;;;14.52;10.10;;;35.30;45.60;;;;;;4824926;29;20038;-76
2022/08/19 13:19:47;;;;;;;12.93;10.10;;;35.40;46.10;;;;;;4836388;29;20038;-74
2022/08/19 13:22:14;;;;;;;8.77;7.60;;;35.40;46.00;;;;;;4821802;29;20045;-75